createdAt,value
2018-12-15T16:41:15.849Z,11.8
2018-12-15T16:46:19.556Z,13.7
2018-12-15T16:51:20.101Z,15.2
2018-12-15T16:56:20.246Z,16.3
2018-12-15T17:01:19.731Z,17.8
2018-12-15T17:06:19.636Z,19.7
2018-12-15T17:11:18.779Z,21.3
2018-12-15T17:16:17.756Z,22.5
2018-12-15T17:21:17.021Z,23.8
2018-12-15T17:26:16.217Z,25.1
2018-12-15T17:31:15.252Z,26.4
2018-12-15T17:36:14.475Z,27.8
2018-12-15T17:41:13.782Z,29
2018-12-15T17:46:12.441Z,30.2
2018-12-15T17:51:11.628Z,31.4
2018-12-15T17:56:10.683Z,32.3
2018-12-15T18:01:08.962Z,33.3
2018-12-15T18:06:11.374Z,33.7
2018-12-15T18:11:08.979Z,34.7
2018-12-15T18:16:07.359Z,35.2
2018-12-15T18:21:09.697Z,35.6
2018-12-15T18:26:07.254Z,36
2018-12-15T18:31:04.630Z,36.3
2018-12-15T18:36:02.413Z,36.5
2018-12-15T18:40:59.473Z,36.7
2018-12-15T18:45:56.979Z,36.8
2018-12-15T18:50:53.523Z,37
2018-12-15T18:55:51.561Z,37
2018-12-15T19:00:48.015Z,37
2018-12-15T19:05:44.589Z,36.9
2018-12-15T19:10:42.353Z,36.3
2018-12-15T19:15:38.475Z,36.2
2018-12-15T19:20:35.223Z,35.7
2018-12-15T19:25:31.782Z,35.3
2018-12-15T19:30:27.773Z,34.6
2018-12-15T19:35:24.387Z,34.5
2018-12-15T19:40:21.061Z,34.2
2018-12-15T19:45:17.540Z,34
2018-12-15T19:50:13.921Z,33.7
2018-12-15T19:55:10.061Z,33.5
2018-12-15T20:00:06.738Z,33.2
2018-12-15T20:05:03.561Z,32.7
2018-12-15T20:09:59.878Z,32.8
2018-12-15T20:14:56.213Z,32.6
2018-12-15T20:19:52.648Z,31.9
2018-12-15T20:24:49.073Z,32.2
2018-12-15T20:29:45.503Z,32
2018-12-15T20:34:42.588Z,31.7
2018-12-15T20:39:39.006Z,31.4
2018-12-15T20:44:41.506Z,31.2
2018-12-15T20:49:37.438Z,30.9
2018-12-15T20:54:34.884Z,30.7
2018-12-15T20:59:31.614Z,30.5
2018-12-15T21:04:27.888Z,30.2
2018-12-15T21:09:24.412Z,30
2018-12-15T21:14:20.965Z,29.8
2018-12-15T21:19:17.458Z,29.6
2018-12-15T21:24:14.568Z,29.4
2018-12-15T21:29:11.173Z,29.2
2018-12-15T21:34:08.589Z,29
2018-12-15T21:39:04.988Z,28.8
2018-12-15T21:44:01.338Z,28.6
2018-12-15T21:48:57.947Z,28.4
2018-12-15T21:53:54.695Z,28
2018-12-15T21:58:51.846Z,28.2
2018-12-15T22:03:48.866Z,28
2018-12-15T22:08:45.883Z,27.9
2018-12-15T22:13:42.869Z,27.7
2018-12-15T22:18:39.467Z,27.6
2018-12-15T22:23:36.623Z,27.4
2018-12-15T22:28:32.605Z,27.1
2018-12-15T22:33:29.463Z,27.1
2018-12-15T22:38:25.944Z,26.5
2018-12-15T22:43:22.264Z,26.4
2018-12-15T22:48:19.240Z,26.6
2018-12-15T22:53:15.962Z,26.3
2018-12-15T22:58:12.358Z,26.3
2018-12-15T23:03:09.392Z,25.8
2018-12-15T23:08:05.630Z,25.5
2018-12-15T23:13:02.624Z,25.5
2018-12-15T23:17:58.989Z,25.7
2018-12-15T23:22:55.585Z,25.5
2018-12-15T23:27:52.126Z,24.8
2018-12-15T23:32:48.697Z,24.9
2018-12-15T23:37:45.367Z,25.1
2018-12-15T23:42:42.217Z,24.6
2018-12-15T23:47:39.164Z,24.4
2018-12-15T23:52:35.956Z,24.4
2018-12-15T23:57:32.815Z,24.5
